createdAt,value
2022-10-28T00:01:24.976Z,101250.56
2022-10-28T00:03:55.105Z,101251.44
2022-10-28T00:06:33.733Z,101241.75
2022-10-28T00:09:01.828Z,101245.31
2022-10-28T00:11:31.840Z,101243.59
2022-10-28T00:14:01.926Z,101247.13
2022-10-28T00:16:31.689Z,101240.06
2022-10-28T00:19:00.147Z,101240.13
2022-10-28T00:21:30.178Z,101242.69
2022-10-28T00:23:57.870Z,101248.84
2022-10-28T00:26:27.686Z,101247.88
2022-10-28T00:29:00.006Z,101240.97
2022-10-28T00:31:29.291Z,101237.47
2022-10-28T00:33:58.629Z,101239.25
2022-10-28T00:36:34.322Z,101241.84
2022-10-28T00:39:03.292Z,101242.75
2022-10-28T00:41:33.989Z,101248.94
2022-10-28T00:44:23.211Z,101245.41
2022-10-28T00:46:53.194Z,101242.69
2022-10-28T00:49:27.596Z,101248.03
2022-10-28T00:52:01.255Z,101251.56
2022-10-28T00:54:29.941Z,101246.28
2022-10-28T00:56:58.215Z,101240.19
2022-10-28T00:59:34.405Z,101244.53
2022-10-28T01:02:02.195Z,101240.16
2022-10-28T01:04:29.580Z,101239.25
2022-10-28T01:06:57.464Z,101241.00
2022-10-28T01:12:15.830Z,101240.16
2022-10-28T01:15:20.725Z,101235.75
2022-10-28T01:17:56.297Z,101231.34
2022-10-28T01:21:04.747Z,101238.41
2022-10-28T01:23:35.993Z,101231.47
2022-10-28T01:26:25.635Z,101227.94
2022-10-28T01:29:08.407Z,101234.03
2022-10-28T01:31:50.233Z,101233.16
2022-10-28T01:34:37.834Z,101221.78
2022-10-28T01:37:14.857Z,101222.69
2022-10-28T01:39:47.937Z,101226.22
2022-10-28T01:42:15.430Z,101221.81
2022-10-28T01:45:02.602Z,101219.19
2022-10-28T01:47:43.606Z,101217.47
2022-10-28T01:50:25.223Z,101214.81
2022-10-28T01:52:55.779Z,101214.81
2022-10-28T01:55:29.311Z,101222.72
2022-10-28T01:57:58.715Z,101227.06
2022-10-28T02:00:26.473Z,101230.53
2022-10-28T02:02:55.650Z,101233.19
2022-10-28T02:05:46.766Z,101230.56
2022-10-28T02:08:35.727Z,101222.69
2022-10-28T02:11:34.767Z,101216.59
2022-10-28T02:14:11.409Z,101224.44
2022-10-28T02:16:44.370Z,101219.19
2022-10-28T02:19:47.515Z,101216.63
2022-10-28T02:22:17.646Z,101215.75
2022-10-28T02:25:17.668Z,101215.72
2022-10-28T02:27:50.315Z,101213.13
2022-10-28T02:30:24.868Z,101216.63
2022-10-28T02:32:56.683Z,101215.78
2022-10-28T02:35:41.106Z,101221.84
2022-10-28T02:38:11.631Z,101222.78
2022-10-28T02:40:40.565Z,101224.47
2022-10-28T02:43:09.991Z,101223.59
2022-10-28T02:45:42.407Z,101227.97
2022-10-28T02:48:16.362Z,101228.88
2022-10-28T02:50:47.046Z,101221.00
2022-10-28T02:53:19.527Z,101214.84
2022-10-28T02:55:51.027Z,101210.50
2022-10-28T02:58:19.054Z,101200.81
2022-10-28T03:00:47.077Z,101204.34
2022-10-28T03:03:14.414Z,101209.59
2022-10-28T03:05:42.000Z,101203.50
2022-10-28T03:08:09.323Z,101202.59
2022-10-28T03:10:36.618Z,101202.66
2022-10-28T03:13:04.158Z,101203.47
2022-10-28T03:15:31.443Z,101207.84
2022-10-28T03:17:58.755Z,101206.13
2022-10-28T03:20:26.322Z,101218.41
2022-10-28T03:22:53.795Z,101215.78
2022-10-28T03:25:21.275Z,101210.50
2022-10-28T03:27:48.858Z,101216.63
2022-10-28T03:30:18.377Z,101216.63
2022-10-28T03:32:45.669Z,101215.78
2022-10-28T03:35:13.280Z,101218.41
2022-10-28T03:37:44.086Z,101224.50
2022-10-28T03:40:12.066Z,101220.16
2022-10-28T03:42:42.772Z,101215.78
2022-10-28T03:45:10.609Z,101212.25
2022-10-28T03:47:37.902Z,101221.88
2022-10-28T03:50:05.797Z,101211.38
2022-10-28T03:52:33.099Z,101214.00
2022-10-28T03:55:00.427Z,101208.78
2022-10-28T03:57:31.427Z,101209.63
2022-10-28T03:59:58.834Z,101210.50
2022-10-28T04:02:26.761Z,101217.53
2022-10-28T04:04:54.413Z,101214.91
2022-10-28T04:07:21.958Z,101207.91
2022-10-28T04:09:51.371Z,101200.91
2022-10-28T04:12:19.203Z,101198.28
2022-10-28T04:14:46.537Z,101196.53
2022-10-28T04:17:13.900Z,101200.00
2022-10-28T04:19:41.646Z,101192.13
2022-10-28T04:22:09.698Z,101193.88
2022-10-28T04:24:36.976Z,101190.38
2022-10-28T04:27:04.569Z,101193.03
2022-10-28T04:29:32.154Z,101195.63
2022-10-28T04:31:59.595Z,101192.09
2022-10-28T04:34:27.166Z,101192.13
2022-10-28T04:36:54.453Z,101182.50
2022-10-28T04:39:21.788Z,101184.25
2022-10-28T04:41:49.651Z,101177.25
2022-10-28T04:44:16.947Z,101183.34
2022-10-28T04:46:44.316Z,101178.06
2022-10-28T04:49:11.935Z,101178.97
2022-10-28T04:51:39.279Z,101174.59
2022-10-28T04:54:06.759Z,101167.62
2022-10-28T04:56:34.338Z,101165.00
2022-10-28T04:59:01.627Z,101176.37
2022-10-28T05:01:29.032Z,101168.50
2022-10-28T05:03:56.712Z,101168.50
2022-10-28T05:06:24.061Z,101181.59
2022-10-28T05:08:51.367Z,101179.00
2022-10-28T05:11:18.954Z,101163.25
2022-10-28T05:13:46.293Z,101169.41
2022-10-28T05:16:13.595Z,101173.75
2022-10-28T05:18:41.191Z,101179.87
2022-10-28T05:21:08.519Z,101176.34
2022-10-28T05:23:35.842Z,101176.34
2022-10-28T05:26:03.498Z,101180.75
2022-10-28T05:28:30.813Z,101178.12
2022-10-28T05:30:58.138Z,101186.84
2022-10-28T05:33:25.693Z,101182.47
2022-10-28T05:35:53.005Z,101191.25
2022-10-28T05:38:20.319Z,101192.09
2022-10-28T05:40:47.882Z,101188.59
2022-10-28T05:43:15.179Z,101191.25
2022-10-28T05:45:42.523Z,101196.50
2022-10-28T05:48:10.156Z,101195.63
2022-10-28T05:50:37.528Z,101205.25
2022-10-28T05:53:04.816Z,101204.38
2022-10-28T05:55:32.412Z,101208.78
2022-10-28T05:57:59.961Z,101207.91
2022-10-28T06:00:27.350Z,101207.03
2022-10-28T06:03:09.232Z,101209.63
2022-10-28T06:05:37.963Z,101211.38
2022-10-28T06:08:05.785Z,101214.91
2022-10-28T06:10:33.475Z,101217.53
2022-10-28T06:12:59.297Z,101217.50
2022-10-28T06:15:26.883Z,101221.91
2022-10-28T06:17:54.196Z,101227.16
2022-10-28T06:20:21.517Z,101220.13
2022-10-28T06:22:54.140Z,101215.78
2022-10-28T06:25:22.652Z,101214.00
2022-10-28T06:27:57.956Z,101221.03
2022-10-28T06:30:26.287Z,101217.50
2022-10-28T06:32:57.098Z,101218.41
2022-10-28T06:35:24.380Z,101228.00
2022-10-28T06:37:56.343Z,101223.66
2022-10-28T06:40:24.164Z,101224.50
2022-10-28T06:43:05.340Z,101223.63
2022-10-28T06:45:33.597Z,101224.50
2022-10-28T06:48:04.904Z,101230.63
2022-10-28T06:50:33.108Z,101234.16
2022-10-28T06:53:00.965Z,101235.91
2022-10-28T06:55:28.950Z,101235.00
2022-10-28T06:58:00.486Z,101235.88
2022-10-28T07:03:02.688Z,101235.88
2022-10-28T07:05:30.375Z,101241.16
2022-10-28T07:07:57.694Z,101246.41
2022-10-28T07:10:25.095Z,101242.88
2022-10-28T07:12:53.433Z,101247.25
2022-10-28T07:15:21.653Z,101243.75
2022-10-28T07:17:56.061Z,101245.53
2022-10-28T07:20:26.130Z,101238.50
2022-10-28T07:23:01.118Z,101244.63
2022-10-28T07:25:31.818Z,101251.63
2022-10-28T07:27:59.333Z,101249.88
2022-10-28T07:30:27.915Z,101241.13
2022-10-28T07:32:55.958Z,101240.25
2022-10-28T07:35:23.535Z,101240.25
2022-10-28T07:37:50.834Z,101246.38
2022-10-28T07:40:20.434Z,101244.63
2022-10-28T07:42:47.802Z,101246.41
2022-10-28T07:45:15.262Z,101252.50
2022-10-28T07:47:43.215Z,101249.91
2022-10-28T07:50:11.380Z,101264.78
2022-10-28T07:52:38.712Z,101257.78
2022-10-28T07:55:07.701Z,101256.00
2022-10-28T07:57:35.545Z,101265.69
2022-10-28T08:00:04.706Z,101257.72
2022-10-28T08:02:38.185Z,101259.47
2022-10-28T08:05:06.298Z,101249.88
2022-10-28T08:07:36.331Z,101250.78
2022-10-28T08:10:06.936Z,101256.87
2022-10-28T08:12:34.509Z,101255.09
2022-10-28T08:15:02.678Z,101243.75
2022-10-28T08:17:30.647Z,101246.34
2022-10-28T08:19:58.092Z,101231.47
2022-10-28T08:22:25.474Z,101234.97
2022-10-28T08:24:53.050Z,101231.47
2022-10-28T08:27:20.369Z,101229.72
2022-10-28T08:29:47.692Z,101227.91
2022-10-28T08:32:15.254Z,101233.19
2022-10-28T08:34:43.709Z,101233.16
2022-10-28T08:37:11.581Z,101234.03
2022-10-28T08:39:40.704Z,101236.63
2022-10-28T08:42:29.279Z,101253.31
2022-10-28T08:45:21.334Z,101252.50
2022-10-28T08:48:10.870Z,101243.75
2022-10-28T08:50:46.422Z,101248.94
2022-10-28T08:53:41.653Z,101262.97
2022-10-28T08:56:46.154Z,101260.34
2022-10-28T08:59:18.434Z,101258.62
2022-10-28T09:04:42.222Z,101268.22
2022-10-28T09:07:15.935Z,101266.44
2022-10-28T09:09:43.250Z,101264.69
2022-10-28T09:12:10.773Z,101267.34
2022-10-28T09:14:44.359Z,101273.44
2022-10-28T09:17:20.243Z,101262.94
2022-10-28T09:19:52.760Z,101268.19
2022-10-28T09:22:30.692Z,101268.22
2022-10-28T09:25:01.767Z,101259.44
2022-10-28T09:27:44.663Z,101260.31
2022-10-28T09:30:30.442Z,101258.50
2022-10-28T09:33:50.828Z,101255.91
2022-10-28T09:36:27.262Z,101258.56
2022-10-28T09:38:56.609Z,101263.84
2022-10-28T09:41:44.344Z,101260.37
2022-10-28T09:44:20.032Z,101264.72
2022-10-28T09:46:49.075Z,101248.06
2022-10-28T09:49:21.348Z,101243.69
2022-10-28T09:51:53.387Z,101252.50
2022-10-28T09:54:29.025Z,101255.97
2022-10-28T09:56:56.389Z,101256.91
2022-10-28T09:59:26.819Z,101258.62
2022-10-28T10:01:54.282Z,101270.03
2022-10-28T10:04:23.888Z,101266.50
2022-10-28T10:06:54.493Z,101263.03
2022-10-28T10:09:25.797Z,101260.34
2022-10-28T10:11:55.913Z,101253.38
2022-10-28T10:15:05.653Z,101246.34
2022-10-28T10:17:44.955Z,101251.63
2022-10-28T10:20:18.388Z,101254.22
2022-10-28T10:22:48.270Z,101262.12
2022-10-28T10:25:18.575Z,101261.22
2022-10-28T10:28:05.121Z,101268.25
2022-10-28T10:30:40.307Z,101266.50
2022-10-28T10:33:18.619Z,101266.41
2022-10-28T10:35:57.799Z,101259.47
2022-10-28T10:38:28.153Z,101252.50
2022-10-28T10:40:55.832Z,101243.72
2022-10-28T10:43:36.759Z,101245.47
2022-10-28T10:46:15.893Z,101255.09
2022-10-28T10:48:43.747Z,101252.47
2022-10-28T10:51:24.298Z,101248.94
2022-10-28T10:54:00.821Z,101246.31
2022-10-28T10:56:30.552Z,101244.53
2022-10-28T10:59:02.301Z,101240.16
2022-10-28T11:01:38.797Z,101247.19
2022-10-28T11:04:07.860Z,101244.56
2022-10-28T11:06:39.946Z,101240.22
2022-10-28T11:09:17.814Z,101240.19
2022-10-28T11:11:45.414Z,101229.66
2022-10-28T11:14:13.382Z,101236.69
2022-10-28T11:16:54.583Z,101236.69
2022-10-28T11:19:24.810Z,101237.59
2022-10-28T11:22:06.713Z,101243.72
2022-10-28T11:24:58.184Z,101238.41
2022-10-28T11:27:39.182Z,101239.28
2022-10-28T11:30:13.223Z,101236.66
2022-10-28T11:33:02.210Z,101234.91
2022-10-28T11:35:54.655Z,101234.88
2022-10-28T11:38:43.272Z,101234.03
2022-10-28T11:41:32.751Z,101234.88
2022-10-28T11:44:05.007Z,101234.91
2022-10-28T11:46:48.359Z,101225.31
2022-10-28T11:49:59.113Z,101228.81
2022-10-28T11:52:45.350Z,101212.97
2022-10-28T11:55:27.316Z,101213.03
2022-10-28T11:58:06.233Z,101212.16
2022-10-28T12:00:42.294Z,101209.50
2022-10-28T12:03:34.303Z,101206.03
2022-10-28T12:06:07.336Z,101200.78
2022-10-28T12:08:40.885Z,101202.44
2022-10-28T12:11:26.851Z,101205.12
2022-10-28T12:14:22.137Z,101191.97
2022-10-28T12:17:03.846Z,101188.47
2022-10-28T12:19:39.041Z,101188.56
2022-10-28T12:22:28.009Z,101185.87
2022-10-28T12:24:56.931Z,101187.62
2022-10-28T12:27:28.786Z,101192.81
2022-10-28T12:30:01.568Z,101184.94
2022-10-28T12:32:31.765Z,101179.75
2022-10-28T12:35:03.476Z,101182.37
2022-10-28T12:37:47.811Z,101178.03
2022-10-28T12:40:20.802Z,101169.28
2022-10-28T12:42:52.576Z,101169.25
2022-10-28T12:45:20.620Z,101171.03
2022-10-28T12:47:58.088Z,101169.22
2022-10-28T12:50:32.300Z,101168.34
2022-10-28T12:53:02.397Z,101158.81
2022-10-28T12:55:42.872Z,101160.41
2022-10-28T12:58:13.284Z,101164.78
2022-10-28T13:00:43.951Z,101163.84
2022-10-28T13:03:15.418Z,101163.84
2022-10-28T13:06:12.451Z,101160.38
2022-10-28T13:11:46.217Z,101152.50
2022-10-28T13:14:27.832Z,101153.38
2022-10-28T13:17:27.698Z,101152.50
2022-10-28T13:20:07.698Z,101153.38
2022-10-28T13:22:47.451Z,101155.13
2022-10-28T13:25:20.633Z,101152.41
2022-10-28T13:27:48.906Z,101156.84
2022-10-28T13:30:17.743Z,101156.84
2022-10-28T13:32:45.448Z,101163.94
2022-10-28T13:35:16.323Z,101163.06
2022-10-28T13:37:46.714Z,101159.53
2022-10-28T13:40:34.509Z,101162.13
2022-10-28T13:43:02.276Z,101161.28
2022-10-28T13:45:49.491Z,101157.84
2022-10-28T13:48:28.619Z,101162.16
2022-10-28T13:51:11.331Z,101150.88
2022-10-28T13:53:47.737Z,101152.59
2022-10-28T13:56:22.426Z,101152.56
2022-10-28T13:58:51.932Z,101145.50
2022-10-28T14:01:56.782Z,101145.41
2022-10-28T14:04:38.039Z,101151.50
2022-10-28T14:07:11.328Z,101151.38
2022-10-28T14:12:33.171Z,101162.81
2022-10-28T14:15:05.421Z,101159.28
2022-10-28T14:17:46.213Z,101159.31
2022-10-28T14:20:24.275Z,101169.88
2022-10-28T14:22:52.944Z,101165.41
2022-10-28T14:25:43.760Z,101166.44
2022-10-28T14:28:29.553Z,101159.41
2022-10-28T14:31:09.231Z,101156.81
2022-10-28T14:33:49.987Z,101156.75
2022-10-28T14:36:17.441Z,101150.72
2022-10-28T14:39:12.157Z,101150.69
2022-10-28T14:41:54.919Z,101149.81
2022-10-28T14:44:39.822Z,101155.13
2022-10-28T14:47:18.254Z,101156.09
2022-10-28T14:49:58.640Z,101163.94
2022-10-28T14:52:28.890Z,101147.31
2022-10-28T14:54:58.683Z,101150.78
2022-10-28T14:57:33.842Z,101149.88
2022-10-28T15:00:05.636Z,101151.69
2022-10-28T15:02:35.270Z,101138.56
2022-10-28T15:05:14.992Z,101139.44
2022-10-28T15:07:42.700Z,101145.53
2022-10-28T15:10:26.914Z,101145.56
2022-10-28T15:12:56.360Z,101141.22
2022-10-28T15:15:32.221Z,101145.56
2022-10-28T15:18:00.324Z,101134.19
2022-10-28T15:20:33.399Z,101130.72
2022-10-28T15:23:21.588Z,101132.44
2022-10-28T15:26:12.790Z,101134.25
2022-10-28T15:28:40.672Z,101128.09
2022-10-28T15:31:08.903Z,101132.50
2022-10-28T15:33:41.791Z,101124.63
2022-10-28T15:36:24.434Z,101126.38
2022-10-28T15:38:52.221Z,101121.06
2022-10-28T15:41:22.705Z,101116.66
2022-10-28T15:43:58.808Z,101121.03
2022-10-28T15:46:27.370Z,101117.59
2022-10-28T15:48:56.552Z,101122.03
2022-10-28T15:51:24.298Z,101121.97
2022-10-28T15:53:54.093Z,101119.41
2022-10-28T15:56:26.089Z,101119.38
2022-10-28T15:58:59.661Z,101123.78
2022-10-28T16:01:38.120Z,101119.34
2022-10-28T16:04:26.109Z,101118.41
2022-10-28T16:06:57.595Z,101121.06
2022-10-28T16:09:34.087Z,101125.53
2022-10-28T16:12:14.396Z,101114.22
2022-10-28T16:14:47.387Z,101119.44
2022-10-28T16:17:23.004Z,101116.72
2022-10-28T16:19:54.677Z,101114.16
2022-10-28T16:22:23.737Z,101115.84
2022-10-28T16:24:53.348Z,101115.03
2022-10-28T16:27:22.687Z,101122.06
2022-10-28T16:29:50.674Z,101112.41
2022-10-28T16:32:25.186Z,101120.25
2022-10-28T16:34:52.514Z,101121.16
2022-10-28T16:37:23.180Z,101119.38
2022-10-28T16:39:50.699Z,101122.84
2022-10-28T16:42:19.604Z,101121.13
2022-10-28T16:44:47.266Z,101122.06
2022-10-28T16:47:19.486Z,101129.00
2022-10-28T16:49:54.197Z,101125.44
2022-10-28T16:52:29.143Z,101120.25
2022-10-28T16:54:57.085Z,101128.06
2022-10-28T16:59:57.301Z,101128.09
2022-10-28T17:02:30.852Z,101123.81
2022-10-28T17:04:58.898Z,101123.81
2022-10-28T17:07:27.183Z,101126.38
2022-10-28T17:09:54.603Z,101137.78
2022-10-28T17:12:24.384Z,101130.81
2022-10-28T17:14:51.709Z,101133.50
2022-10-28T17:17:19.282Z,101123.84
2022-10-28T17:19:46.977Z,101131.72
2022-10-28T17:22:14.435Z,101120.25
2022-10-28T17:24:41.736Z,101120.22
2022-10-28T17:27:09.319Z,101128.13
2022-10-28T17:29:36.690Z,101128.19
2022-10-28T17:32:04.729Z,101127.28
2022-10-28T17:34:32.469Z,101124.66
2022-10-28T17:36:59.752Z,101127.25
2022-10-28T17:39:27.040Z,101126.38
2022-10-28T17:41:54.869Z,101129.88
2022-10-28T17:44:22.222Z,101127.34
2022-10-28T17:46:51.037Z,101127.31
2022-10-28T17:49:18.718Z,101139.53
2022-10-28T17:51:46.116Z,101143.94
2022-10-28T17:54:13.543Z,101125.53
2022-10-28T17:56:42.233Z,101129.88
2022-10-28T17:59:09.762Z,101126.41
2022-10-28T18:01:37.233Z,101129.88
2022-10-28T18:04:06.118Z,101135.06
2022-10-28T18:06:33.526Z,101136.78
2022-10-28T18:09:01.104Z,101131.53
2022-10-28T18:11:31.267Z,101124.56
2022-10-28T18:13:58.661Z,101121.13
2022-10-28T18:16:28.055Z,101123.78
2022-10-28T18:18:56.113Z,101129.03
2022-10-28T18:21:24.455Z,101124.66
2022-10-28T18:23:52.966Z,101124.63
2022-10-28T18:26:21.097Z,101121.06
2022-10-28T18:28:49.059Z,101117.59
2022-10-28T18:31:18.447Z,101120.25
2022-10-28T18:33:46.624Z,101119.38
2022-10-28T18:36:19.170Z,101122.88
2022-10-28T18:38:47.082Z,101125.50
2022-10-28T18:41:22.140Z,101117.69
2022-10-28T18:43:57.123Z,101116.81
2022-10-28T18:46:25.566Z,101123.81
2022-10-28T18:48:53.550Z,101115.06
2022-10-28T18:51:20.918Z,101106.25
2022-10-28T18:53:49.243Z,101114.97
2022-10-28T18:56:18.874Z,101104.50
2022-10-28T18:58:49.177Z,101097.47
2022-10-28T19:01:22.424Z,101099.19
2022-10-28T19:04:00.676Z,101102.66
2022-10-28T19:06:32.340Z,101101.81
2022-10-28T19:09:02.210Z,101108.84
2022-10-28T19:11:31.490Z,101106.31
2022-10-28T19:14:00.693Z,101103.66
2022-10-28T19:16:28.704Z,101105.31
2022-10-28T19:18:57.466Z,101101.81
2022-10-28T19:21:25.797Z,101103.69
2022-10-28T19:23:53.121Z,101111.50
2022-10-28T19:26:20.892Z,101112.38
2022-10-28T19:28:49.300Z,101103.69
2022-10-28T19:31:19.220Z,101107.94
2022-10-28T19:33:46.832Z,101103.56
2022-10-28T19:36:25.380Z,101103.59
2022-10-28T19:38:53.779Z,101103.62
2022-10-28T19:41:23.832Z,101109.66
2022-10-28T19:43:58.049Z,101104.50
2022-10-28T19:46:28.132Z,101112.31
2022-10-28T19:48:57.394Z,101109.75
2022-10-28T19:51:27.375Z,101110.72
2022-10-28T19:53:57.125Z,101112.44
2022-10-28T19:56:24.980Z,101113.31
2022-10-28T19:58:54.263Z,101115.91
2022-10-28T20:01:23.330Z,101124.59
2022-10-28T20:03:51.791Z,101119.41
2022-10-28T20:06:22.593Z,101107.19
2022-10-28T20:08:50.304Z,101111.53
2022-10-28T20:11:38.083Z,101112.41
2022-10-28T20:14:12.259Z,101116.81
2022-10-28T20:16:42.535Z,101120.25
2022-10-28T20:19:10.731Z,101124.66
2022-10-28T20:21:38.273Z,101127.31
2022-10-28T20:24:06.874Z,101126.44
2022-10-28T20:26:36.006Z,101129.91
2022-10-28T20:29:03.608Z,101129.88
2022-10-28T20:31:32.165Z,101130.72
2022-10-28T20:34:03.440Z,101129.91
2022-10-28T20:36:36.552Z,101129.88
2022-10-28T20:39:10.847Z,101122.09
2022-10-28T20:41:39.430Z,101121.22
2022-10-28T20:44:07.093Z,101122.97
2022-10-28T20:46:35.146Z,101120.28
2022-10-28T20:49:02.998Z,101125.53
2022-10-28T20:51:31.835Z,101124.69
2022-10-28T20:53:59.296Z,101127.28
2022-10-28T20:56:29.089Z,101120.34
2022-10-28T20:58:57.780Z,101120.28
2022-10-28T21:01:30.229Z,101117.63
2022-10-28T21:04:00.631Z,101110.56
2022-10-28T21:06:29.109Z,101113.31
2022-10-28T21:08:56.953Z,101109.72
2022-10-28T21:11:25.123Z,101110.69
2022-10-28T21:13:54.869Z,101107.13
2022-10-28T21:16:22.676Z,101113.28
2022-10-28T21:18:50.318Z,101113.34
2022-10-28T21:21:18.947Z,101109.81
2022-10-28T21:23:47.154Z,101110.72
2022-10-28T21:26:14.748Z,101115.91
2022-10-28T21:28:42.062Z,101122.03
2022-10-28T21:31:14.348Z,101114.19
2022-10-28T21:33:42.936Z,101112.44
2022-10-28T21:36:20.844Z,101119.50
2022-10-28T21:38:48.543Z,101118.53
2022-10-28T21:41:19.920Z,101113.28
2022-10-28T21:43:49.718Z,101109.78
2022-10-28T21:46:18.064Z,101106.25
2022-10-28T21:48:45.694Z,101110.63
2022-10-28T21:51:15.361Z,101106.25
2022-10-28T21:53:43.959Z,101102.72
2022-10-28T21:56:18.221Z,101100.16
2022-10-28T21:58:47.754Z,101096.56
2022-10-28T22:01:20.572Z,101106.19
2022-10-28T22:03:48.405Z,101096.59
2022-10-28T22:06:15.781Z,101094.75
2022-10-28T22:08:43.095Z,101094.75
2022-10-28T22:11:15.782Z,101086.84
2022-10-28T22:13:43.340Z,101098.28
2022-10-28T22:16:12.925Z,101089.59
2022-10-28T22:18:40.576Z,101087.94
2022-10-28T22:21:11.474Z,101089.66
2022-10-28T22:23:39.306Z,101085.22
2022-10-28T22:26:08.966Z,101087.00
2022-10-28T22:28:36.791Z,101087.84
2022-10-28T22:31:06.934Z,101081.78
2022-10-28T22:33:34.328Z,101080.87
2022-10-28T22:36:04.596Z,101081.78
2022-10-28T22:38:32.528Z,101083.44
2022-10-28T22:41:07.209Z,101079.03
2022-10-28T22:43:34.777Z,101079.91
2022-10-28T22:46:02.729Z,101079.03
2022-10-28T22:48:30.940Z,101084.28
2022-10-28T22:50:59.134Z,101087.84
2022-10-28T22:53:26.568Z,101082.59
2022-10-28T22:55:54.290Z,101077.28
2022-10-28T22:58:23.133Z,101075.53
2022-10-28T23:00:50.775Z,101073.81
2022-10-28T23:03:18.297Z,101065.97
2022-10-28T23:05:46.031Z,101061.59
2022-10-28T23:08:16.302Z,101067.69
2022-10-28T23:10:43.629Z,101059.84
2022-10-28T23:13:12.264Z,101066.84
2022-10-28T23:15:39.572Z,101060.66
2022-10-28T23:18:06.942Z,101055.44
2022-10-28T23:20:35.706Z,101065.94
2022-10-28T23:23:03.013Z,101060.81
2022-10-28T23:25:30.545Z,101058.13
2022-10-28T23:27:58.347Z,101058.09
2022-10-28T23:30:25.926Z,101056.38
2022-10-28T23:32:53.255Z,101056.25
2022-10-28T23:35:20.819Z,101050.19
2022-10-28T23:37:48.109Z,101054.66
2022-10-28T23:40:15.569Z,101052.94
2022-10-28T23:42:43.164Z,101052.09
2022-10-28T23:45:10.492Z,101052.09
2022-10-28T23:47:37.836Z,101059.97
2022-10-28T23:50:05.500Z,101064.41
2022-10-28T23:52:32.809Z,101061.78
2022-10-28T23:55:00.106Z,101058.28
2022-10-28T23:57:27.646Z,101066.97
2022-10-28T23:59:54.946Z,101060.91
